Time;durP1;ratioP1;P1;durP2;ratioP2;P2;SDS_P1;SDS_P2;PMS_P1;PMS_P2;Temp;Humidity;BMP_temperature;BMP_pressure;BME280_temperature;BME280_humidity;BME280_pressure;Samples;Min_cycle;Max_cycle;Signal;HPM_P1;HPM_P2
2021/04/18 00:01:43;;;;;;;10.73;8.67;;;;;;;1.84;81.15;95875.59;5011794;28;20186;-73
2021/04/18 00:04:08;;;;;;;10.87;9.53;;;;;;;1.82;81.54;95874.03;5011515;28;20187;-72
2021/04/18 00:06:38;;;;;;;13.33;8.93;;;;;;;1.78;81.29;95868.28;5011565;28;20176;-73
2021/04/18 00:09:07;;;;;;;12.70;9.00;;;;;;;1.84;81.43;95873.03;5027821;28;20651;-73
2021/04/18 00:11:33;;;;;;;11.87;9.67;;;;;;;1.81;81.49;95862.97;5011566;28;20176;-73
2021/04/18 00:13:58;;;;;;;12.47;9.37;;;;;;;1.82;81.29;95868.91;5011457;28;20662;-73
2021/04/18 00:16:23;;;;;;;11.60;9.87;;;;;;;1.78;81.58;95858.03;5011221;28;20171;-73
2021/04/18 00:18:49;;;;;;;12.17;9.23;;;;;;;1.79;81.42;95859.69;5012665;28;20233;-73
2021/04/18 00:21:14;;;;;;;11.50;9.77;;;;;;;1.81;81.42;95860.41;5011450;28;20259;-73
2021/04/18 00:23:40;;;;;;;14.23;10.83;;;;;;;1.77;81.97;95858.94;5011310;28;20185;-73
2021/04/18 00:26:05;;;;;;;13.77;10.30;;;;;;;1.80;82.01;95856.19;5012303;28;20208;-73
2021/04/18 00:28:30;;;;;;;16.57;10.03;;;;;;;1.74;81.84;95856.53;4994672;28;530092;-72
2021/04/18 00:30:56;;;;;;;13.00;10.03;;;;;;;1.80;82.25;95855.38;5013529;28;20171;-72
2021/04/18 00:33:21;;;;;;;11.03;9.20;;;;;;;1.72;82.38;95855.81;5012165;28;20200;-73
2021/04/18 00:35:47;;;;;;;13.93;10.03;;;;;;;1.72;82.21;95854.97;5011772;28;20209;-72
2021/04/18 00:38:12;;;;;;;12.10;9.80;;;;;;;1.77;82.12;95853.81;5012177;28;20226;-73
2021/04/18 00:40:38;;;;;;;13.63;9.97;;;;;;;1.76;82.17;95854.72;5013051;28;20208;-73
2021/04/18 00:43:04;;;;;;;12.87;9.70;;;;;;;1.81;82.66;95859.59;5028550;28;20243;-72
2021/04/18 00:45:30;;;;;;;11.37;9.50;;;;;;;1.83;82.37;95856.00;5011842;28;20286;-72
2021/04/18 00:47:56;;;;;;;14.03;9.87;;;;;;;1.83;81.87;95847.50;5011902;28;20183;-73
2021/04/18 00:50:29;;;;;;;12.93;10.17;;;;;;;1.84;82.42;95847.41;5011811;28;20171;-72
2021/04/18 00:52:55;;;;;;;10.70;9.60;;;;;;;1.87;82.24;95852.38;5028203;28;20694;-72
2021/04/18 00:55:23;;;;;;;12.47;9.90;;;;;;;1.82;82.05;95849.25;5031171;28;20289;-72
2021/04/18 00:57:49;;;;;;;12.90;9.83;;;;;;;1.79;82.21;95844.31;4998738;28;20182;-73
2021/04/18 01:00:15;;;;;;;10.73;8.90;;;;;;;1.83;82.59;95844.94;5014409;28;20217;-72
2021/04/18 01:02:41;;;;;;;11.53;9.07;;;;;;;1.80;82.00;95840.00;5014885;28;20189;-72
2021/04/18 01:05:07;;;;;;;12.73;10.17;;;;;;;1.75;82.19;95844.56;5032286;28;20217;-72
2021/04/18 01:07:34;;;;;;;12.97;9.20;;;;;;;1.78;82.49;95839.28;5014647;28;20187;-73
2021/04/18 01:09:59;;;;;;;13.80;10.17;;;;;;;1.74;81.98;95832.66;5014684;28;20176;-74
2021/04/18 01:12:25;;;;;;;11.50;9.73;;;;;;;1.77;82.42;95840.16;5014870;28;20179;-72
2021/04/18 01:14:50;;;;;;;15.30;9.77;;;;;;;1.79;82.16;95834.06;5014750;28;20289;-71
2021/04/18 01:17:16;;;;;;;12.40;9.23;;;;;;;1.82;82.16;95823.63;5014806;28;20715;-73
2021/04/18 01:19:41;;;;;;;16.83;10.43;;;;;;;1.85;82.23;95833.69;5014630;28;20591;-72
2021/04/18 01:22:06;;;;;;;11.33;10.13;;;;;;;1.84;81.81;95829.50;4998212;28;20260;-72
2021/04/18 01:24:32;;;;;;;12.60;9.53;;;;;;;1.84;81.66;95823.53;5031758;28;20214;-72
2021/04/18 01:26:57;;;;;;;17.33;9.73;;;;;;;1.87;81.84;95819.09;5014589;28;20189;-72
2021/04/18 01:29:22;;;;;;;13.33;9.33;;;;;;;1.88;81.46;95818.19;5030823;28;20600;-72
2021/04/18 01:31:48;;;;;;;11.97;8.90;;;;;;;1.88;81.31;95812.22;5014456;28;20181;-72
2021/04/18 01:34:13;;;;;;;11.87;8.87;;;;;;;1.85;81.68;95820.91;5031791;28;20200;-72
2021/04/18 01:36:42;;;;;;;9.60;8.40;;;;;;;1.89;81.44;95819.00;5030543;28;20183;-73
2021/04/18 01:39:08;;;;;;;11.03;8.73;;;;;;;1.89;81.81;95817.25;5014207;28;20202;-72
2021/04/18 01:41:33;;;;;;;10.80;8.83;;;;;;;1.85;81.07;95814.94;5014432;28;20180;-73
2021/04/18 01:43:58;;;;;;;10.80;7.97;;;;;;;1.82;81.57;95815.97;5014205;28;20182;-73
2021/04/18 01:46:24;;;;;;;11.83;8.50;;;;;;;1.79;80.87;95813.59;5014101;28;20550;-72
2021/04/18 01:48:49;;;;;;;10.03;9.00;;;;;;;1.79;81.26;95812.75;5014129;28;20305;-71
2021/04/18 01:51:14;;;;;;;9.70;7.70;;;;;;;1.74;80.39;95805.31;5031800;28;20180;-73
2021/04/18 01:53:39;;;;;;;9.60;8.20;;;;;;;1.74;80.12;95810.44;5031663;28;20183;-71
2021/04/18 01:56:05;;;;;;;11.33;8.30;;;;;;;1.75;80.13;95803.59;5013785;28;20277;-72
2021/04/18 01:58:31;;;;;;;10.63;8.00;;;;;;;1.73;79.81;95803.69;5013943;28;20181;-72
2021/04/18 02:00:56;;;;;;;8.97;7.30;;;;;;;1.75;79.57;95806.97;5030276;28;20221;-73
2021/04/18 02:03:22;;;;;;;10.00;8.03;;;;;;;1.77;79.76;95806.88;5031662;28;20253;-72
2021/04/18 02:05:47;;;;;;;11.53;7.77;;;;;;;1.80;79.90;95811.84;5031212;28;20242;-73
2021/04/18 02:08:12;;;;;;;9.43;7.63;;;;;;;1.82;79.64;95808.28;5013907;28;20224;-73
2021/04/18 02:10:38;;;;;;;10.40;8.77;;;;;;;1.81;79.65;95810.94;5013761;28;20181;-73
2021/04/18 02:13:03;;;;;;;12.30;7.90;;;;;;;1.79;79.59;95813.59;5013973;28;20232;-73
2021/04/18 02:15:29;;;;;;;8.70;7.80;;;;;;;1.80;79.96;95814.41;5013459;28;20285;-73
2021/04/18 02:17:55;;;;;;;9.70;7.80;;;;;;;1.83;80.04;95816.78;5013873;28;20669;-72
2021/04/18 02:20:20;;;;;;;9.97;7.93;;;;;;;1.80;79.90;95815.22;5013474;28;20221;-72
2021/04/18 02:22:45;;;;;;;9.97;7.90;;;;;;;1.76;79.58;95812.91;5013724;28;20182;-72
2021/04/18 02:25:12;;;;;;;9.93;8.27;;;;;;;1.76;79.51;95808.63;5013296;28;20287;-73
2021/04/18 02:27:38;;;;;;;9.33;8.40;;;;;;;1.77;79.72;95814.56;5031354;28;20277;-72
2021/04/18 02:30:05;;;;;;;12.20;8.20;;;;;;;1.76;79.73;95810.34;5013669;28;20206;-74
2021/04/18 02:32:30;;;;;;;10.33;8.70;;;;;;;1.74;79.78;95815.56;5031252;28;20231;-71
2021/04/18 02:34:56;;;;;;;10.13;9.13;;;;;;;1.77;79.71;95814.56;5012853;28;20614;-72
2021/04/18 02:37:21;;;;;;;12.17;8.97;;;;;;;1.76;79.82;95807.78;5031284;28;20175;-72
2021/04/18 02:39:46;;;;;;;9.60;8.33;;;;;;;1.73;79.46;95815.66;5013386;28;20206;-72
2021/04/18 02:42:11;;;;;;;9.53;8.53;;;;;;;1.68;79.62;95813.38;5031280;28;20491;-72
2021/04/18 02:44:37;;;;;;;15.27;12.43;;;;;;;1.70;79.10;95811.56;5013201;28;20195;-71
2021/04/18 02:47:02;;;;;;;17.17;13.93;;;;;;;1.66;79.53;95807.50;5013495;28;20182;-71
2021/04/18 02:49:28;;;;;;;18.13;13.90;;;;;;;1.66;79.49;95800.66;5013450;28;20175;-72
2021/04/18 02:51:53;;;;;;;29.27;20.97;;;;;;;1.66;79.46;95802.38;5031069;28;20182;-72
2021/04/18 02:54:18;;;;;;;30.67;22.73;;;;;;;1.67;79.44;95802.28;5013254;28;20277;-72
2021/04/18 02:56:44;;;;;;;22.63;16.33;;;;;;;1.78;78.80;95800.88;5031105;28;20236;-72
2021/04/18 02:59:09;;;;;;;17.47;14.10;;;;;;;1.69;78.70;95807.34;5031122;28;20222;-71
2021/04/18 03:01:35;;;;;;;12.10;10.50;;;;;;;1.62;78.85;95798.38;5013267;28;20189;-72
2021/04/18 03:04:01;;;;;;;12.23;9.97;;;;;;;1.54;79.38;95798.78;5013409;28;20198;-72
2021/04/18 03:06:26;;;;;;;12.20;9.83;;;;;;;1.57;79.92;95803.72;5013065;28;20179;-74
2021/04/18 03:08:51;;;;;;;12.77;9.73;;;;;;;1.62;79.83;95806.03;5031020;28;20177;-73
2021/04/18 03:11:17;;;;;;;9.50;8.47;;;;;;;1.65;79.43;95806.69;5029863;28;20190;-72
2021/04/18 03:13:43;;;;;;;10.20;8.70;;;;;;;1.66;79.63;95802.38;5013473;28;20567;-74
2021/04/18 03:16:08;;;;;;;9.77;8.70;;;;;;;1.67;80.14;95798.91;5012771;28;20700;-73
2021/04/18 03:18:33;;;;;;;14.20;9.73;;;;;;;1.64;79.74;95796.53;5030957;28;20262;-73
2021/04/18 03:20:59;;;;;;;10.63;8.57;;;;;;;1.65;79.75;95800.75;5030770;28;20214;-73
2021/04/18 03:23:24;;;;;;;11.10;9.90;;;;;;;1.66;79.71;95797.25;5031184;28;20186;-73
2021/04/18 03:25:49;;;;;;;11.50;8.50;;;;;;;1.66;79.78;95794.69;5016485;28;20237;-73
2021/04/18 03:28:14;;;;;;;10.87;8.53;;;;;;;1.66;79.79;95795.53;5033037;28;20293;-73
2021/04/18 03:30:40;;;;;;;11.30;8.57;;;;;;;1.73;79.71;95803.69;5016422;28;20270;-72
2021/04/18 03:33:06;;;;;;;10.53;8.73;;;;;;;1.74;79.67;95800.22;5016680;28;20175;-73
2021/04/18 03:35:31;;;;;;;10.60;9.50;;;;;;;1.73;79.54;95803.69;5016110;28;20210;-73
2021/04/18 03:37:56;;;;;;;10.80;8.73;;;;;;;1.74;79.17;95805.31;5034403;28;20183;-72
2021/04/18 03:40:22;;;;;;;13.43;8.23;;;;;;;1.73;78.83;95800.31;5016464;28;20213;-74
2021/04/18 03:42:47;;;;;;;12.03;8.77;;;;;;;1.64;78.98;95799.09;5016387;28;20175;-73
2021/04/18 03:45:12;;;;;;;12.47;9.37;;;;;;;1.59;79.23;95801.94;4999691;28;20202;-72
2021/04/18 03:47:38;;;;;;;12.23;9.47;;;;;;;1.61;79.13;95801.84;5016450;28;20182;-72
2021/04/18 03:50:05;;;;;;;10.47;8.73;;;;;;;1.58;79.41;95800.25;5033106;28;20184;-72
2021/04/18 03:52:30;;;;;;;11.27;8.80;;;;;;;1.61;78.93;95796.72;5033961;28;20186;-71
2021/04/18 03:54:56;;;;;;;12.03;9.87;;;;;;;1.59;79.47;95796.81;5016045;28;20689;-72
2021/04/18 03:57:22;;;;;;;10.47;9.37;;;;;;;1.60;79.14;95792.50;5016350;28;20186;-72
2021/04/18 03:59:47;;;;;;;12.40;9.20;;;;;;;1.57;78.92;95793.50;5033886;28;20258;-72
2021/04/18 04:02:13;;;;;;;10.90;9.00;;;;;;;1.62;79.60;95793.25;5016202;28;20178;-72
2021/04/18 04:04:38;;;;;;;12.97;8.90;;;;;;;1.54;78.80;95788.56;5033590;28;20265;-72
2021/04/18 04:07:03;;;;;;;13.27;9.33;;;;;;;1.52;79.22;95784.44;5033726;28;20186;-73
2021/04/18 04:09:29;;;;;;;12.53;9.27;;;;;;;1.56;79.13;95791.03;5016030;28;20183;-71
2021/04/18 04:11:55;;;;;;;12.00;9.07;;;;;;;1.55;78.46;95791.94;5033517;28;20198;-72
2021/04/18 04:14:20;;;;;;;11.67;9.53;;;;;;;1.46;79.35;95795.84;5015748;28;20198;-72
2021/04/18 04:16:46;;;;;;;14.17;10.23;;;;;;;1.49;79.52;95790.53;5033455;28;20178;-72
2021/04/18 04:19:11;;;;;;;12.40;9.80;;;;;;;1.51;79.38;95795.59;5033469;28;20195;-71
2021/04/18 04:21:36;;;;;;;16.33;10.53;;;;;;;1.55;79.52;95799.63;5033395;28;20179;-72
2021/04/18 04:24:02;;;;;;;14.47;10.50;;;;;;;1.55;79.58;95799.63;5015663;28;20738;-71
2021/04/18 04:26:27;;;;;;;14.47;11.43;;;;;;;1.60;79.41;95797.63;5032909;28;20182;-72
2021/04/18 04:28:53;;;;;;;14.27;10.57;;;;;;;1.63;79.47;95805.13;5015691;28;20191;-72
2021/04/18 04:31:18;;;;;;;13.43;10.70;;;;;;;1.57;79.50;95801.16;5033329;28;20179;-71
2021/04/18 04:33:43;;;;;;;12.47;9.07;;;;;;;1.48;80.13;95804.25;5033262;28;20545;-72
2021/04/18 04:36:09;;;;;;;13.57;9.20;;;;;;;1.44;80.27;95802.78;5032073;28;20896;-72
2021/04/18 04:38:34;;;;;;;13.17;10.00;;;;;;;1.49;80.26;95805.06;5015661;28;20792;-72
2021/04/18 04:41:00;;;;;;;12.63;9.93;;;;;;;1.51;80.37;95798.16;5015172;28;20570;-71
2021/04/18 04:43:25;;;;;;;10.87;8.50;;;;;;;1.56;79.64;95808.94;5015352;28;20214;-72
2021/04/18 04:45:51;;;;;;;11.23;9.13;;;;;;;1.55;79.72;95804.72;5015054;28;20202;-71
2021/04/18 04:48:16;;;;;;;15.73;9.03;;;;;;;1.62;79.58;95808.59;5015277;28;20182;-72
2021/04/18 04:50:41;;;;;;;13.60;9.10;;;;;;;1.54;79.80;95803.91;5031666;28;20183;-72
2021/04/18 04:53:07;;;;;;;12.07;9.20;;;;;;;1.54;80.47;95806.47;5015130;28;20265;-72
2021/04/18 04:55:32;;;;;;;11.37;9.50;;;;;;;1.60;80.15;95813.81;5032482;28;20293;-73
2021/04/18 04:57:58;;;;;;;12.23;9.57;;;;;;;1.65;79.88;95810.97;5031515;28;20175;-71
2021/04/18 05:00:23;;;;;;;11.13;9.07;;;;;;;1.66;80.28;95813.44;5032784;28;20213;-72
2021/04/18 05:02:48;;;;;;;10.50;9.40;;;;;;;1.74;79.64;95815.56;5032678;28;20178;-71
2021/04/18 05:05:14;;;;;;;12.30;10.07;;;;;;;1.74;80.01;95809.63;5014648;28;20768;-72
2021/04/18 05:07:39;;;;;;;14.73;9.93;;;;;;;1.70;79.83;95814.13;5014811;28;20189;-72
2021/04/18 05:10:05;;;;;;;12.50;9.63;;;;;;;1.73;80.11;95813.94;5014868;28;20232;-72
2021/04/18 05:12:31;;;;;;;13.00;9.70;;;;;;;1.74;80.08;95815.56;5014784;28;20182;-72
2021/04/18 05:14:56;;;;;;;11.27;9.60;;;;;;;1.73;80.05;95816.50;5014542;28;20209;-72
2021/04/18 05:17:21;;;;;;;10.53;9.33;;;;;;;1.76;80.45;95820.59;5014771;28;20186;-72
2021/04/18 05:19:46;;;;;;;11.20;9.80;;;;;;;1.81;80.25;95824.56;5014600;28;20305;-72
2021/04/18 05:22:12;;;;;;;14.47;10.47;;;;;;;1.82;80.52;95822.81;5032372;28;20654;-74
2021/04/18 05:24:37;;;;;;;14.37;11.17;;;;;;;1.89;79.93;95824.94;5014415;28;20201;-73
2021/04/18 05:27:02;;;;;;;15.17;12.17;;;;;;;1.92;80.00;95826.50;5032129;28;20186;-73
2021/04/18 05:29:28;;;;;;;15.13;11.43;;;;;;;1.89;80.25;95831.81;4998015;28;20190;-74
2021/04/18 05:31:55;;;;;;;13.83;11.53;;;;;;;1.92;80.50;95829.88;5014534;28;20743;-73
2021/04/18 05:34:20;;;;;;;14.73;10.93;;;;;;;2.04;79.96;95822.41;5031863;28;20192;-73
2021/04/18 05:36:46;;;;;;;16.57;11.97;;;;;;;2.02;80.27;95826.78;5030842;28;20227;-73
2021/04/18 05:39:11;;;;;;;13.30;11.47;;;;;;;2.02;79.92;95832.72;5014459;28;20218;-73
2021/04/18 05:41:37;;;;;;;12.97;10.73;;;;;;;2.08;80.45;95836.69;5031956;28;20188;-73
2021/04/18 05:44:04;;;;;;;12.33;10.83;;;;;;;2.06;80.15;95831.66;5014153;28;20182;-73
2021/04/18 05:46:29;;;;;;;14.13;10.80;;;;;;;2.20;80.08;95836.78;5014118;28;20172;-73
2021/04/18 05:48:55;;;;;;;14.93;10.93;;;;;;;2.20;79.83;95835.97;5031876;28;20224;-73
2021/04/18 05:51:20;;;;;;;12.50;10.77;;;;;;;2.21;79.96;95843.59;5031992;28;20228;-73
2021/04/18 05:53:46;;;;;;;14.27;10.93;;;;;;;2.23;80.25;95839.19;4997680;28;20538;-73
2021/04/18 05:56:11;;;;;;;12.63;10.43;;;;;;;2.24;79.97;95840.00;5014109;28;20317;-73
2021/04/18 05:58:36;;;;;;;13.70;10.00;;;;;;;2.39;79.83;95838.28;5014114;28;20596;-73
2021/04/18 06:01:02;;;;;;;14.47;10.13;;;;;;;2.29;79.96;95845.66;5031767;28;20242;-73
2021/04/18 06:03:27;;;;;;;14.07;11.40;;;;;;;2.32;79.13;95848.06;5014007;28;20280;-73
2021/04/18 06:05:53;;;;;;;13.77;11.00;;;;;;;2.38;79.42;95847.69;5013743;28;20226;-73
2021/04/18 06:08:18;;;;;;;12.73;10.80;;;;;;;2.41;79.03;95851.84;5031705;28;20706;-73
2021/04/18 06:10:43;;;;;;;12.60;10.50;;;;;;;2.46;78.99;95854.94;5013847;28;20188;-73
2021/04/18 06:13:08;;;;;;;12.73;10.33;;;;;;;2.53;78.68;95848.53;5013943;28;20183;-71
2021/04/18 06:15:34;;;;;;;11.80;9.63;;;;;;;2.62;78.78;95844.59;5013564;28;20207;-73
2021/04/18 06:17:59;;;;;;;11.50;10.30;;;;;;;2.64;78.29;95845.31;5013869;28;20538;-74
2021/04/18 06:20:24;;;;;;;14.00;10.03;;;;;;;2.77;77.16;95846.25;5013789;28;20234;-73
2021/04/18 06:22:50;;;;;;;10.90;9.50;;;;;;;2.78;77.82;95845.31;5031487;28;20206;-74
2021/04/18 06:25:15;;;;;;;10.83;9.40;;;;;;;2.79;77.27;95841.84;5031167;28;20203;-73
2021/04/18 06:27:41;;;;;;;12.63;9.83;;;;;;;2.81;77.35;95852.81;5013858;28;20201;-72
2021/04/18 06:30:07;;;;;;;12.80;9.73;;;;;;;2.91;76.69;95855.66;5014075;28;20171;-75
2021/04/18 06:32:33;;;;;;;10.83;9.73;;;;;;;2.95;76.75;95847.69;5031333;28;20217;-73
2021/04/18 06:34:58;;;;;;;11.03;9.83;;;;;;;3.05;76.42;95851.34;5031719;28;20398;-75
2021/04/18 06:37:24;;;;;;;11.20;9.07;;;;;;;3.04;76.39;95852.25;5036213;28;20179;-75
2021/04/18 06:39:49;;;;;;;12.10;9.70;;;;;;;3.11;75.77;95856.09;5020224;28;20546;-74
2021/04/18 06:42:16;;;;;;;12.93;10.07;;;;;;;3.17;76.14;95856.63;5014178;28;20194;-72
2021/04/18 06:44:41;;;;;;;11.20;9.23;;;;;;;3.25;76.27;95851.84;5031011;28;20235;-73
2021/04/18 06:47:08;;;;;;;13.53;10.13;;;;;;;3.38;75.66;95852.72;5032210;28;20178;-75
2021/04/18 06:49:34;;;;;;;14.20;10.23;;;;;;;3.49;74.90;95847.75;5013497;28;20257;-74
2021/04/18 06:52:00;;;;;;;14.57;10.60;;;;;;;3.55;74.57;95849.94;4997338;28;20702;-72
2021/04/18 06:54:25;;;;;;;11.97;9.63;;;;;;;3.72;73.95;95848.03;4993376;28;20323;-75
2021/04/18 06:56:50;;;;;;;10.23;8.90;;;;;;;3.77;74.09;95846.78;4992804;28;20267;-75
2021/04/18 06:59:16;;;;;;;10.70;9.27;;;;;;;3.78;73.88;95847.63;5014044;28;20557;-72
2021/04/18 07:01:41;;;;;;;11.17;9.33;;;;;;;3.92;73.70;95853.50;4996859;28;20207;-73
2021/04/18 07:04:11;;;;;;;14.57;10.47;;;;;;;4.04;72.36;95854.44;4996620;28;20546;-73
2021/04/18 07:06:44;;;;;;;15.60;10.00;;;;;;;4.02;71.35;95848.59;5013313;28;20265;-74
2021/04/18 07:09:10;;;;;;;11.10;9.77;;;;;;;4.24;71.44;95855.72;4981276;28;20175;-74
2021/04/18 07:11:46;;;;;;;11.10;8.93;;;;;;;4.21;71.61;95849.03;4997574;28;20258;-74
2021/04/18 07:14:21;;;;;;;12.07;9.50;;;;;;;4.19;71.32;95853.44;4997311;28;20564;-73
2021/04/18 07:16:46;;;;;;;13.13;9.57;;;;;;;4.48;70.74;95842.97;4997364;28;20185;-74
2021/04/18 07:19:25;;;;;;;13.37;10.20;;;;;;;4.62;70.67;95848.03;4997213;28;20266;-74
2021/04/18 07:21:56;;;;;;;16.33;11.67;;;;;;;4.49;70.02;95849.75;5014870;28;20175;-74
2021/04/18 07:24:23;;;;;;;11.50;9.20;;;;;;;4.51;69.66;95838.47;4997010;28;20202;-75
2021/04/18 07:26:56;;;;;;;11.30;9.33;;;;;;;4.74;69.60;95846.34;5014575;28;20202;-74
2021/04/18 07:29:22;;;;;;;10.83;9.40;;;;;;;4.68;68.80;95845.03;4996983;28;20671;-74
2021/04/18 07:31:47;;;;;;;10.10;6.83;;;;;;;4.64;65.36;95837.63;4997137;28;20184;-74
2021/04/18 07:34:15;;;;;;;12.30;8.27;;;;;;;4.50;65.37;95841.13;5014033;28;20210;-74
2021/04/18 07:36:45;;;;;;;10.07;7.10;;;;;;;4.61;65.25;95848.94;4997029;28;20175;-75
2021/04/18 07:39:13;;;;;;;12.90;7.83;;;;;;;4.44;66.87;95846.69;4996940;28;20171;-74
2021/04/18 07:41:41;;;;;;;9.90;6.97;;;;;;;4.56;66.23;95845.84;4998242;28;20185;-74
2021/04/18 07:44:08;;;;;;;13.37;8.20;;;;;;;4.47;65.25;95842.16;4996903;28;20276;-74
2021/04/18 07:46:34;;;;;;;8.60;7.10;;;;;;;4.40;66.43;95840.09;4996881;28;20303;-74
2021/04/18 07:49:00;;;;;;;10.33;6.53;;;;;;;4.63;66.34;95841.13;4996891;28;20203;-74
2021/04/18 07:51:25;;;;;;;9.87;7.40;;;;;;;4.58;66.54;95838.84;4996842;28;20190;-74
2021/04/18 07:53:51;;;;;;;10.27;7.53;;;;;;;4.49;66.70;95835.16;4996693;28;20179;-73
2021/04/18 07:56:16;;;;;;;10.07;7.60;;;;;;;4.66;66.52;95840.91;4996707;28;20217;-73
2021/04/18 07:58:43;;;;;;;11.03;7.77;;;;;;;4.69;66.59;95841.53;5014214;28;20179;-74
2021/04/18 08:01:09;;;;;;;8.87;7.40;;;;;;;4.75;66.45;95840.28;4996338;28;20206;-73
2021/04/18 08:03:36;;;;;;;13.00;7.03;;;;;;;4.43;64.64;95847.63;4996703;28;20182;-74
2021/04/18 08:06:01;;;;;;;8.70;7.07;;;;;;;4.62;65.75;95842.88;4996226;28;20298;-74
2021/04/18 08:08:48;;;;;;;16.47;8.90;;;;;;;4.58;66.28;95848.31;5012429;28;20286;-73
2021/04/18 08:11:15;;;;;;;10.40;7.03;;;;;;;4.93;65.75;95843.34;4996459;28;20659;-73
2021/04/18 08:13:43;;;;;;;12.40;7.00;;;;;;;5.05;64.78;95843.31;4998523;28;20175;-74
2021/04/18 08:16:09;;;;;;;10.73;6.87;;;;;;;5.00;64.65;95849.72;4996645;28;20286;-74
2021/04/18 08:18:41;;;;;;;8.37;7.03;;;;;;;4.96;65.80;95840.56;4996346;28;20176;-74
2021/04/18 08:21:37;;;;;;;8.13;7.20;;;;;;;5.16;65.67;95846.91;5012384;28;20214;-74
2021/04/18 08:24:05;;;;;;;10.13;7.67;;;;;;;5.02;65.77;95843.53;5013662;28;20217;-74
2021/04/18 08:26:32;;;;;;;10.80;7.37;;;;;;;4.78;64.28;95846.06;4979623;28;20179;-74
2021/04/18 08:29:04;;;;;;;11.70;7.80;;;;;;;4.41;65.70;95849.44;4996859;28;20590;-74
2021/04/18 08:31:53;;;;;;;10.90;7.17;;;;;;;4.10;66.66;95850.66;5013629;28;20186;-75
2021/04/18 08:34:24;;;;;;;9.10;6.63;;;;;;;4.40;65.89;95853.78;4995857;28;20199;-75
2021/04/18 08:36:52;;;;;;;8.00;6.60;;;;;;;4.75;65.46;95856.53;4996024;28;20260;-75
2021/04/18 08:39:24;;;;;;;8.63;6.83;;;;;;;4.86;64.92;95857.53;4997924;28;20701;-78
2021/04/18 08:41:52;;;;;;;12.80;7.70;;;;;;;5.16;62.50;95855.44;4997283;28;20179;-78
2021/04/18 08:44:35;;;;;;;11.20;7.07;;;;;;;5.19;63.16;95850.06;4996676;28;20239;-78
2021/04/18 08:47:03;;;;;;;11.13;7.00;;;;;;;5.58;62.47;95855.94;5013243;28;20640;-78
2021/04/18 08:49:36;;;;;;;12.73;6.87;;;;;;;6.13;61.56;95851.97;5013792;28;20261;-77
2021/04/18 08:52:10;;;;;;;9.17;7.07;;;;;;;5.99;59.23;95857.28;5021342;28;20174;-77
2021/04/18 08:54:41;;;;;;;9.73;7.10;;;;;;;6.14;59.49;95854.41;4996683;28;20573;-78
2021/04/18 08:57:29;;;;;;;11.17;7.10;;;;;;;6.20;59.30;95846.25;5014448;28;20257;-78
2021/04/18 08:59:57;;;;;;;11.23;7.00;;;;;;;6.09;58.94;95860.84;4998753;28;20207;-78
2021/04/18 09:02:26;;;;;;;12.77;7.20;;;;;;;5.98;60.18;95859.03;4999289;28;20189;-79
2021/04/18 09:04:54;;;;;;;9.33;7.00;;;;;;;5.45;60.16;95863.69;4998114;28;20203;-79
2021/04/18 09:07:25;;;;;;;10.03;7.23;;;;;;;5.28;61.45;95870.03;4999402;28;20218;-79
2021/04/18 09:09:51;;;;;;;11.80;7.67;;;;;;;5.69;61.04;95863.72;4995338;28;20590;-76
2021/04/18 09:12:17;;;;;;;17.77;8.70;;;;;;;5.31;61.55;95866.44;4995217;28;20677;-76
2021/04/18 09:14:48;;;;;;;19.47;8.50;;;;;;;5.63;60.73;95866.72;4994884;28;20207;-75
2021/04/18 09:17:17;;;;;;;10.13;7.43;;;;;;;5.55;60.72;95871.59;4994927;28;20270;-76
2021/04/18 09:20:03;;;;;;;10.53;7.37;;;;;;;5.50;60.77;95871.09;4994778;28;20238;-75
2021/04/18 09:22:32;;;;;;;12.83;7.47;;;;;;;5.15;61.22;95879.53;5011556;28;20214;-76
2021/04/18 09:25:06;;;;;;;11.93;7.43;;;;;;;5.36;61.50;95875.47;5012440;28;20257;-76
2021/04/18 09:27:33;;;;;;;11.53;7.90;;;;;;;5.54;60.21;95872.53;4995794;28;20217;-75
2021/04/18 09:30:00;;;;;;;12.43;7.83;;;;;;;5.33;61.09;95875.69;4994416;28;20592;-76
2021/04/18 09:32:29;;;;;;;12.73;8.00;;;;;;;5.42;60.89;95875.97;5012582;28;20249;-75
2021/04/18 09:34:54;;;;;;;14.93;8.33;;;;;;;5.45;60.04;95878.31;4980503;28;20564;-75
2021/04/18 09:37:43;;;;;;;12.73;7.30;;;;;;;5.43;59.59;95873.28;4979095;28;20176;-76
2021/04/18 09:40:13;;;;;;;12.13;7.07;;;;;;;5.21;61.26;95868.84;5010724;28;20211;-75
2021/04/18 09:42:42;;;;;;;12.80;8.07;;;;;;;5.04;61.91;95877.72;5012830;28;20270;-75
2021/04/18 09:45:11;;;;;;;14.53;8.00;;;;;;;5.53;61.05;95879.44;4998451;28;20203;-76
2021/04/18 09:47:36;;;;;;;12.87;8.23;;;;;;;5.80;60.17;95871.47;5008466;28;20186;-75
2021/04/18 09:50:04;;;;;;;17.13;8.67;;;;;;;6.12;60.69;95873.53;4996153;28;20236;-76
2021/04/18 09:52:31;;;;;;;16.60;8.10;;;;;;;5.75;58.99;95873.59;4994724;28;20190;-75
2021/04/18 09:55:08;;;;;;;11.73;7.53;;;;;;;5.83;59.95;95868.69;5014378;28;20202;-75
2021/04/18 09:57:48;;;;;;;15.17;7.53;;;;;;;6.23;58.12;95874.38;4979560;28;20806;-75
2021/04/18 10:00:22;;;;;;;10.47;7.40;;;;;;;5.96;58.53;95868.66;5007350;28;20358;-75
2021/04/18 10:03:04;;;;;;;12.20;8.27;;;;;;;6.12;60.02;95870.94;4995039;28;20261;-76
2021/04/18 10:05:31;;;;;;;10.77;7.73;;;;;;;6.29;58.04;95875.69;5009479;28;20612;-75
2021/04/18 10:08:18;;;;;;;12.37;8.40;;;;;;;6.71;57.27;95873.38;4987798;28;20184;-76
2021/04/18 10:10:44;;;;;;;14.00;8.83;;;;;;;6.78;56.71;95877.16;5011760;28;20265;-76
2021/04/18 10:13:09;;;;;;;12.83;7.43;;;;;;;6.04;57.34;95879.22;4992341;28;20192;-76
2021/04/18 10:15:57;;;;;;;10.90;7.67;;;;;;;6.60;56.71;95874.22;4994524;28;20211;-75
2021/04/18 10:18:22;;;;;;;11.90;8.13;;;;;;;6.74;56.24;95875.75;4977006;28;20191;-75
2021/04/18 10:20:48;;;;;;;12.67;8.23;;;;;;;6.72;56.58;95875.88;4994913;28;20234;-76
2021/04/18 10:23:14;;;;;;;13.53;8.20;;;;;;;6.67;56.36;95866.84;4988599;28;20190;-76
2021/04/18 10:25:40;;;;;;;13.43;8.00;;;;;;;6.69;57.16;95870.09;4977310;28;20208;-76
2021/04/18 10:28:06;;;;;;;13.10;7.77;;;;;;;6.96;55.60;95875.75;4976898;28;20188;-75
2021/04/18 10:30:32;;;;;;;11.73;8.00;;;;;;;6.68;57.56;95873.63;4992649;28;20180;-76
2021/04/18 10:32:58;;;;;;;10.40;8.40;;;;;;;7.00;57.00;95872.00;4994585;28;20543;-76
2021/04/18 10:35:24;;;;;;;12.43;7.70;;;;;;;7.54;56.54;95873.00;4978855;28;20226;-75
2021/04/18 10:37:49;;;;;;;13.70;8.13;;;;;;;7.50;54.48;95872.41;4978607;28;20187;-76
2021/04/18 10:40:16;;;;;;;10.90;7.93;;;;;;;7.86;55.24;95857.50;4996444;28;20299;-76
2021/04/18 10:42:41;;;;;;;11.00;7.27;;;;;;;8.00;52.92;95862.41;4978522;28;20180;-76
2021/04/18 10:45:08;;;;;;;11.73;7.47;;;;;;;8.11;52.80;95867.50;4995769;28;20210;-75
2021/04/18 10:47:34;;;;;;;9.53;7.80;;;;;;;7.88;54.05;95860.81;4993218;28;20268;-75
2021/04/18 10:50:02;;;;;;;10.07;7.23;;;;;;;7.84;53.17;95860.22;4996082;28;20305;-75
2021/04/18 10:52:27;;;;;;;9.97;7.70;;;;;;;7.71;54.11;95858.75;4978297;28;20560;-76
2021/04/18 10:54:53;;;;;;;14.03;7.30;;;;;;;7.36;55.38;95865.75;4981295;28;20214;-75
2021/04/18 10:57:18;;;;;;;10.00;7.77;;;;;;;7.45;54.48;95859.03;5013340;28;20179;-75
2021/04/18 10:59:43;;;;;;;9.93;7.67;;;;;;;7.16;54.91;95852.75;5014714;28;20683;-75
2021/04/18 11:02:09;;;;;;;12.33;8.83;;;;;;;7.43;55.33;95855.78;4997593;28;20268;-75
2021/04/18 11:04:34;;;;;;;12.13;8.23;;;;;;;6.70;56.48;95859.66;4981215;28;20203;-76
2021/04/18 11:07:02;;;;;;;9.80;7.53;;;;;;;6.95;56.73;95857.81;4997286;28;20187;-75
2021/04/18 11:09:27;;;;;;;11.77;7.87;;;;;;;6.74;56.65;95860.28;4995243;28;20171;-75
2021/04/18 11:11:53;;;;;;;8.97;7.43;;;;;;;6.81;56.75;95858.88;4977605;28;20198;-74
2021/04/18 11:14:18;;;;;;;11.40;7.53;;;;;;;7.06;56.83;95856.03;4977953;28;20200;-75
2021/04/18 11:16:43;;;;;;;11.37;7.50;;;;;;;6.68;57.40;95855.56;4977666;28;20188;-74
2021/04/18 11:19:09;;;;;;;10.57;7.27;;;;;;;7.00;56.28;95856.53;4995326;28;20210;-75
2021/04/18 11:21:34;;;;;;;12.73;8.23;;;;;;;6.86;56.70;95859.31;4978493;28;20228;-75
2021/04/18 11:24:00;;;;;;;10.30;8.17;;;;;;;6.70;56.85;95857.09;4977103;28;20187;-75
2021/04/18 11:26:25;;;;;;;11.43;7.73;;;;;;;6.53;58.05;95854.94;4977289;28;20180;-75
2021/04/18 11:28:51;;;;;;;9.77;7.30;;;;;;;6.56;58.89;95859.09;4994102;28;20250;-75
2021/04/18 11:31:17;;;;;;;8.90;7.67;;;;;;;6.58;58.22;95854.63;4977947;28;20631;-75